sensor_id;sensor_type;location;lat;lon;timestamp;P1;durP1;ratioP1;P2;durP2;ratioP2
3659;SDS011;1846;51.482;7.224;2023-07-13T00:00:47;4.53;;;1.60;;
3659;SDS011;1846;51.482;7.224;2023-07-13T00:03:14;2.80;;;1.30;;
3659;SDS011;1846;51.482;7.224;2023-07-13T00:05:43;4.22;;;1.77;;
3659;SDS011;1846;51.482;7.224;2023-07-13T00:08:10;3.10;;;1.50;;
3659;SDS011;1846;51.482;7.224;2023-07-13T00:10:40;4.60;;;1.20;;
3659;SDS011;1846;51.482;7.224;2023-07-13T00:13:08;2.50;;;1.57;;
3659;SDS011;1846;51.482;7.224;2023-07-13T00:15:35;2.55;;;1.58;;
3659;SDS011;1846;51.482;7.224;2023-07-13T00:18:02;2.50;;;1.90;;
3659;SDS011;1846;51.482;7.224;2023-07-13T00:20:29;3.10;;;1.50;;
3659;SDS011;1846;51.482;7.224;2023-07-13T00:22:58;6.07;;;1.70;;
3659;SDS011;1846;51.482;7.224;2023-07-13T00:25:25;3.45;;;1.27;;
3659;SDS011;1846;51.482;7.224;2023-07-13T00:27:53;4.05;;;1.70;;
3659;SDS011;1846;51.482;7.224;2023-07-13T00:30:20;5.15;;;1.67;;
3659;SDS011;1846;51.482;7.224;2023-07-13T00:32:47;2.50;;;1.70;;
3659;SDS011;1846;51.482;7.224;2023-07-13T00:35:15;5.53;;;1.70;;
3659;SDS011;1846;51.482;7.224;2023-07-13T00:37:42;4.27;;;1.70;;
3659;SDS011;1846;51.482;7.224;2023-07-13T00:40:11;5.45;;;2.00;;
3659;SDS011;1846;51.482;7.224;2023-07-13T00:42:39;2.60;;;1.30;;
3659;SDS011;1846;51.482;7.224;2023-07-13T00:48:09;5.00;;;1.42;;
3659;SDS011;1846;51.482;7.224;2023-07-13T00:50:37;3.75;;;2.00;;
3659;SDS011;1846;51.482;7.224;2023-07-13T00:53:05;3.00;;;1.40;;
3659;SDS011;1846;51.482;7.224;2023-07-13T00:55:35;4.30;;;1.73;;
3659;SDS011;1846;51.482;7.224;2023-07-13T00:58:02;3.22;;;1.55;;
3659;SDS011;1846;51.482;7.224;2023-07-13T01:00:30;5.82;;;1.58;;
3659;SDS011;1846;51.482;7.224;2023-07-13T01:02:57;5.53;;;1.60;;
3659;SDS011;1846;51.482;7.224;2023-07-13T01:05:24;3.45;;;1.50;;
3659;SDS011;1846;51.482;7.224;2023-07-13T01:07:51;5.65;;;1.85;;
3659;SDS011;1846;51.482;7.224;2023-07-13T01:10:21;3.87;;;1.40;;
3659;SDS011;1846;51.482;7.224;2023-07-13T01:12:50;2.40;;;1.30;;
3659;SDS011;1846;51.482;7.224;2023-07-13T01:15:36;4.38;;;1.50;;
3659;SDS011;1846;51.482;7.224;2023-07-13T01:18:05;2.95;;;1.33;;
3659;SDS011;1846;51.482;7.224;2023-07-13T01:20:34;5.00;;;1.60;;
3659;SDS011;1846;51.482;7.224;2023-07-13T01:23:04;4.00;;;1.70;;
3659;SDS011;1846;51.482;7.224;2023-07-13T01:25:33;3.45;;;1.40;;
3659;SDS011;1846;51.482;7.224;2023-07-13T01:28:01;5.72;;;1.80;;
3659;SDS011;1846;51.482;7.224;2023-07-13T01:30:28;4.20;;;1.60;;
3659;SDS011;1846;51.482;7.224;2023-07-13T01:32:56;3.88;;;1.67;;
3659;SDS011;1846;51.482;7.224;2023-07-13T01:35:23;4.90;;;1.40;;
3659;SDS011;1846;51.482;7.224;2023-07-13T01:37:50;5.15;;;1.40;;
3659;SDS011;1846;51.482;7.224;2023-07-13T01:40:19;3.47;;;1.33;;
3659;SDS011;1846;51.482;7.224;2023-07-13T01:42:46;5.65;;;1.30;;
3659;SDS011;1846;51.482;7.224;2023-07-13T01:45:13;8.07;;;1.50;;
3659;SDS011;1846;51.482;7.224;2023-07-13T01:47:40;3.00;;;1.37;;
3659;SDS011;1846;51.482;7.224;2023-07-13T01:50:08;1.60;;;1.10;;
3659;SDS011;1846;51.482;7.224;2023-07-13T01:52:35;8.45;;;1.60;;
3659;SDS011;1846;51.482;7.224;2023-07-13T01:55:02;6.20;;;1.50;;
3659;SDS011;1846;51.482;7.224;2023-07-13T01:57:31;5.40;;;1.50;;
3659;SDS011;1846;51.482;7.224;2023-07-13T01:59:58;6.20;;;1.33;;
3659;SDS011;1846;51.482;7.224;2023-07-13T02:02:25;8.55;;;1.50;;
3659;SDS011;1846;51.482;7.224;2023-07-13T02:04:52;2.90;;;1.20;;
3659;SDS011;1846;51.482;7.224;2023-07-13T02:07:19;3.97;;;1.50;;
3659;SDS011;1846;51.482;7.224;2023-07-13T02:09:46;3.33;;;1.42;;
3659;SDS011;1846;51.482;7.224;2023-07-13T02:12:13;3.05;;;1.55;;
3659;SDS011;1846;51.482;7.224;2023-07-13T02:14:42;8.68;;;1.60;;
3659;SDS011;1846;51.482;7.224;2023-07-13T02:17:09;5.60;;;1.63;;
3659;SDS011;1846;51.482;7.224;2023-07-13T02:19:36;2.10;;;1.20;;
3659;SDS011;1846;51.482;7.224;2023-07-13T02:22:04;4.30;;;1.40;;
3659;SDS011;1846;51.482;7.224;2023-07-13T02:24:31;3.80;;;1.27;;
3659;SDS011;1846;51.482;7.224;2023-07-13T02:26:58;3.83;;;2.00;;
3659;SDS011;1846;51.482;7.224;2023-07-13T02:29:25;4.57;;;1.50;;
3659;SDS011;1846;51.482;7.224;2023-07-13T02:31:53;4.00;;;1.70;;
3659;SDS011;1846;51.482;7.224;2023-07-13T02:34:20;3.00;;;1.10;;
3659;SDS011;1846;51.482;7.224;2023-07-13T02:36:47;4.65;;;1.40;;
3659;SDS011;1846;51.482;7.224;2023-07-13T02:39:14;2.35;;;1.33;;
3659;SDS011;1846;51.482;7.224;2023-07-13T02:41:41;2.30;;;1.20;;
3659;SDS011;1846;51.482;7.224;2023-07-13T02:44:08;2.15;;;1.52;;
3659;SDS011;1846;51.482;7.224;2023-07-13T02:46:36;7.10;;;1.35;;
3659;SDS011;1846;51.482;7.224;2023-07-13T02:49:05;4.65;;;1.27;;
3659;SDS011;1846;51.482;7.224;2023-07-13T02:51:32;5.22;;;1.70;;
3659;SDS011;1846;51.482;7.224;2023-07-13T02:53:59;6.90;;;1.52;;
3659;SDS011;1846;51.482;7.224;2023-07-13T02:56:27;4.13;;;1.52;;
3659;SDS011;1846;51.482;7.224;2023-07-13T02:58:56;5.30;;;1.67;;
3659;SDS011;1846;51.482;7.224;2023-07-13T03:01:23;4.43;;;1.52;;
3659;SDS011;1846;51.482;7.224;2023-07-13T03:03:51;2.88;;;1.30;;
3659;SDS011;1846;51.482;7.224;2023-07-13T03:06:20;4.95;;;1.30;;
3659;SDS011;1846;51.482;7.224;2023-07-13T03:08:48;8.27;;;1.50;;
3659;SDS011;1846;51.482;7.224;2023-07-13T03:11:17;4.78;;;1.80;;
3659;SDS011;1846;51.482;7.224;2023-07-13T03:13:45;6.05;;;1.80;;
3659;SDS011;1846;51.482;7.224;2023-07-13T03:16:13;4.40;;;2.05;;
3659;SDS011;1846;51.482;7.224;2023-07-13T03:18:41;6.20;;;1.67;;
3659;SDS011;1846;51.482;7.224;2023-07-13T03:21:09;3.10;;;1.60;;
3659;SDS011;1846;51.482;7.224;2023-07-13T03:23:37;4.82;;;1.65;;
3659;SDS011;1846;51.482;7.224;2023-07-13T03:26:05;8.60;;;1.75;;
3659;SDS011;1846;51.482;7.224;2023-07-13T03:28:34;3.58;;;1.73;;
3659;SDS011;1846;51.482;7.224;2023-07-13T03:31:01;2.42;;;1.40;;
3659;SDS011;1846;51.482;7.224;2023-07-13T03:33:29;3.20;;;1.92;;
3659;SDS011;1846;51.482;7.224;2023-07-13T03:35:56;2.78;;;1.55;;
3659;SDS011;1846;51.482;7.224;2023-07-13T03:38:23;6.20;;;1.55;;
3659;SDS011;1846;51.482;7.224;2023-07-13T03:40:52;6.68;;;2.17;;
3659;SDS011;1846;51.482;7.224;2023-07-13T03:43:19;4.72;;;1.52;;
3659;SDS011;1846;51.482;7.224;2023-07-13T03:45:46;4.90;;;1.90;;
3659;SDS011;1846;51.482;7.224;2023-07-13T03:48:14;4.50;;;1.80;;
3659;SDS011;1846;51.482;7.224;2023-07-13T03:50:41;3.45;;;1.50;;
3659;SDS011;1846;51.482;7.224;2023-07-13T03:53:08;7.10;;;1.80;;
3659;SDS011;1846;51.482;7.224;2023-07-13T03:55:35;3.17;;;1.70;;
3659;SDS011;1846;51.482;7.224;2023-07-13T04:00:52;3.63;;;1.48;;
3659;SDS011;1846;51.482;7.224;2023-07-13T04:03:19;5.38;;;1.75;;
3659;SDS011;1846;51.482;7.224;2023-07-13T04:05:46;7.97;;;2.20;;
3659;SDS011;1846;51.482;7.224;2023-07-13T04:08:13;3.53;;;1.65;;
3659;SDS011;1846;51.482;7.224;2023-07-13T04:10:40;6.30;;;2.08;;
3659;SDS011;1846;51.482;7.224;2023-07-13T04:13:07;4.43;;;1.77;;
3659;SDS011;1846;51.482;7.224;2023-07-13T04:15:35;3.83;;;1.67;;
3659;SDS011;1846;51.482;7.224;2023-07-13T04:18:02;5.78;;;1.95;;
3659;SDS011;1846;51.482;7.224;2023-07-13T04:20:29;5.03;;;1.60;;
3659;SDS011;1846;51.482;7.224;2023-07-13T04:22:57;8.68;;;2.60;;
3659;SDS011;1846;51.482;7.224;2023-07-13T04:25:24;7.90;;;2.35;;
3659;SDS011;1846;51.482;7.224;2023-07-13T04:27:52;7.93;;;2.07;;
3659;SDS011;1846;51.482;7.224;2023-07-13T04:30:19;11.20;;;2.58;;
3659;SDS011;1846;51.482;7.224;2023-07-13T04:32:48;3.85;;;1.60;;
3659;SDS011;1846;51.482;7.224;2023-07-13T04:35:18;5.35;;;1.80;;
3659;SDS011;1846;51.482;7.224;2023-07-13T04:37:47;9.13;;;2.17;;
3659;SDS011;1846;51.482;7.224;2023-07-13T04:40:15;7.60;;;2.00;;
3659;SDS011;1846;51.482;7.224;2023-07-13T04:42:42;8.13;;;2.35;;
3659;SDS011;1846;51.482;7.224;2023-07-13T04:45:10;7.78;;;2.40;;
3659;SDS011;1846;51.482;7.224;2023-07-13T04:47:38;6.32;;;2.05;;
3659;SDS011;1846;51.482;7.224;2023-07-13T04:50:07;7.93;;;2.10;;
3659;SDS011;1846;51.482;7.224;2023-07-13T04:52:35;6.68;;;2.78;;
3659;SDS011;1846;51.482;7.224;2023-07-13T04:55:02;6.63;;;2.50;;
3659;SDS011;1846;51.482;7.224;2023-07-13T04:57:30;2.88;;;1.85;;
3659;SDS011;1846;51.482;7.224;2023-07-13T04:59:57;5.35;;;1.70;;
3659;SDS011;1846;51.482;7.224;2023-07-13T05:02:26;5.55;;;2.50;;
3659;SDS011;1846;51.482;7.224;2023-07-13T05:04:53;6.80;;;2.80;;
3659;SDS011;1846;51.482;7.224;2023-07-13T05:07:21;5.50;;;1.50;;
3659;SDS011;1846;51.482;7.224;2023-07-13T05:09:48;8.63;;;1.87;;
3659;SDS011;1846;51.482;7.224;2023-07-13T05:12:15;5.55;;;1.80;;
3659;SDS011;1846;51.482;7.224;2023-07-13T05:14:42;6.68;;;2.20;;
3659;SDS011;1846;51.482;7.224;2023-07-13T05:17:09;5.68;;;2.03;;
3659;SDS011;1846;51.482;7.224;2023-07-13T05:19:36;3.10;;;1.50;;
3659;SDS011;1846;51.482;7.224;2023-07-13T05:22:04;9.77;;;2.10;;
3659;SDS011;1846;51.482;7.224;2023-07-13T05:24:32;5.85;;;2.40;;
3659;SDS011;1846;51.482;7.224;2023-07-13T05:26:59;9.60;;;1.90;;
3659;SDS011;1846;51.482;7.224;2023-07-13T05:29:26;7.50;;;2.20;;
3659;SDS011;1846;51.482;7.224;2023-07-13T05:31:53;6.47;;;1.70;;
3659;SDS011;1846;51.482;7.224;2023-07-13T05:34:20;4.15;;;2.03;;
3659;SDS011;1846;51.482;7.224;2023-07-13T05:36:47;6.63;;;2.30;;
3659;SDS011;1846;51.482;7.224;2023-07-13T05:39:14;5.13;;;2.50;;
3659;SDS011;1846;51.482;7.224;2023-07-13T05:41:43;7.38;;;2.15;;
3659;SDS011;1846;51.482;7.224;2023-07-13T05:44:10;6.70;;;2.22;;
3659;SDS011;1846;51.482;7.224;2023-07-13T05:46:37;8.05;;;3.10;;
3659;SDS011;1846;51.482;7.224;2023-07-13T05:49:04;8.03;;;2.40;;
3659;SDS011;1846;51.482;7.224;2023-07-13T05:51:31;7.78;;;2.33;;
3659;SDS011;1846;51.482;7.224;2023-07-13T05:53:57;4.28;;;1.58;;
3659;SDS011;1846;51.482;7.224;2023-07-13T05:56:24;5.35;;;2.17;;
3659;SDS011;1846;51.482;7.224;2023-07-13T05:58:53;5.40;;;2.77;;
3659;SDS011;1846;51.482;7.224;2023-07-13T06:01:20;7.40;;;2.00;;
3659;SDS011;1846;51.482;7.224;2023-07-13T06:03:48;10.32;;;3.33;;
3659;SDS011;1846;51.482;7.224;2023-07-13T06:06:15;7.65;;;2.90;;
3659;SDS011;1846;51.482;7.224;2023-07-13T06:08:42;7.65;;;3.00;;
3659;SDS011;1846;51.482;7.224;2023-07-13T06:11:11;11.30;;;2.90;;
3659;SDS011;1846;51.482;7.224;2023-07-13T06:13:40;5.18;;;2.72;;
3659;SDS011;1846;51.482;7.224;2023-07-13T06:16:08;8.93;;;2.72;;
3659;SDS011;1846;51.482;7.224;2023-07-13T06:18:36;6.43;;;2.45;;
3659;SDS011;1846;51.482;7.224;2023-07-13T06:21:07;10.43;;;3.50;;
3659;SDS011;1846;51.482;7.224;2023-07-13T06:23:34;9.60;;;2.90;;
3659;SDS011;1846;51.482;7.224;2023-07-13T06:26:01;6.57;;;2.70;;
3659;SDS011;1846;51.482;7.224;2023-07-13T06:28:28;7.88;;;3.05;;
3659;SDS011;1846;51.482;7.224;2023-07-13T06:30:56;15.00;;;3.90;;
3659;SDS011;1846;51.482;7.224;2023-07-13T06:33:25;9.43;;;2.85;;
3659;SDS011;1846;51.482;7.224;2023-07-13T06:35:52;11.30;;;3.33;;
3659;SDS011;1846;51.482;7.224;2023-07-13T06:38:20;11.75;;;3.50;;
3659;SDS011;1846;51.482;7.224;2023-07-13T06:40:47;9.68;;;2.83;;
3659;SDS011;1846;51.482;7.224;2023-07-13T06:43:13;10.60;;;3.10;;
3659;SDS011;1846;51.482;7.224;2023-07-13T06:45:41;11.75;;;3.05;;
3659;SDS011;1846;51.482;7.224;2023-07-13T06:48:11;9.40;;;3.37;;
3659;SDS011;1846;51.482;7.224;2023-07-13T06:50:39;8.97;;;3.17;;
3659;SDS011;1846;51.482;7.224;2023-07-13T06:53:07;8.20;;;3.10;;
3659;SDS011;1846;51.482;7.224;2023-07-13T06:55:34;9.30;;;3.00;;
3659;SDS011;1846;51.482;7.224;2023-07-13T06:58:01;8.32;;;3.00;;
3659;SDS011;1846;51.482;7.224;2023-07-13T07:00:28;9.00;;;3.00;;
3659;SDS011;1846;51.482;7.224;2023-07-13T07:02:55;10.73;;;3.20;;
3659;SDS011;1846;51.482;7.224;2023-07-13T07:05:22;7.95;;;3.38;;
3659;SDS011;1846;51.482;7.224;2023-07-13T07:07:51;6.53;;;3.10;;
3659;SDS011;1846;51.482;7.224;2023-07-13T07:10:18;6.70;;;3.00;;
3659;SDS011;1846;51.482;7.224;2023-07-13T07:12:46;6.90;;;2.75;;
3659;SDS011;1846;51.482;7.224;2023-07-13T07:15:13;11.32;;;3.47;;
3659;SDS011;1846;51.482;7.224;2023-07-13T07:17:40;6.70;;;2.60;;
3659;SDS011;1846;51.482;7.224;2023-07-13T07:20:07;9.13;;;2.87;;
3659;SDS011;1846;51.482;7.224;2023-07-13T07:22:35;7.57;;;2.88;;
3659;SDS011;1846;51.482;7.224;2023-07-13T07:25:04;9.60;;;3.63;;
3659;SDS011;1846;51.482;7.224;2023-07-13T07:27:31;6.53;;;2.28;;
3659;SDS011;1846;51.482;7.224;2023-07-13T07:29:59;8.25;;;3.10;;
3659;SDS011;1846;51.482;7.224;2023-07-13T07:32:29;6.45;;;3.40;;
3659;SDS011;1846;51.482;7.224;2023-07-13T07:34:56;7.10;;;3.33;;
3659;SDS011;1846;51.482;7.224;2023-07-13T07:37:24;5.85;;;3.20;;
3659;SDS011;1846;51.482;7.224;2023-07-13T07:39:51;5.15;;;2.70;;
3659;SDS011;1846;51.482;7.224;2023-07-13T07:42:19;11.82;;;3.40;;
3659;SDS011;1846;51.482;7.224;2023-07-13T07:44:46;6.88;;;2.85;;
3659;SDS011;1846;51.482;7.224;2023-07-13T07:47:13;8.00;;;2.92;;
3659;SDS011;1846;51.482;7.224;2023-07-13T07:49:40;12.93;;;3.30;;
3659;SDS011;1846;51.482;7.224;2023-07-13T07:52:07;8.10;;;3.75;;
3659;SDS011;1846;51.482;7.224;2023-07-13T07:54:34;13.00;;;3.53;;
3659;SDS011;1846;51.482;7.224;2023-07-13T07:57:02;7.90;;;3.10;;
3659;SDS011;1846;51.482;7.224;2023-07-13T07:59:30;6.93;;;3.30;;
3659;SDS011;1846;51.482;7.224;2023-07-13T08:01:57;10.80;;;3.37;;
3659;SDS011;1846;51.482;7.224;2023-07-13T08:04:24;11.20;;;3.72;;
3659;SDS011;1846;51.482;7.224;2023-07-13T08:06:51;8.48;;;3.30;;
3659;SDS011;1846;51.482;7.224;2023-07-13T08:09:18;8.10;;;3.40;;
3659;SDS011;1846;51.482;7.224;2023-07-13T08:11:45;6.63;;;3.25;;
3659;SDS011;1846;51.482;7.224;2023-07-13T08:14:12;5.93;;;3.25;;
3659;SDS011;1846;51.482;7.224;2023-07-13T08:16:40;10.35;;;4.07;;
3659;SDS011;1846;51.482;7.224;2023-07-13T08:19:07;8.13;;;3.00;;
3659;SDS011;1846;51.482;7.224;2023-07-13T08:21:34;6.88;;;3.50;;
3659;SDS011;1846;51.482;7.224;2023-07-13T08:24:02;5.53;;;3.22;;
3659;SDS011;1846;51.482;7.224;2023-07-13T08:26:29;9.32;;;3.70;;
3659;SDS011;1846;51.482;7.224;2023-07-13T08:28:56;6.40;;;3.30;;
3659;SDS011;1846;51.482;7.224;2023-07-13T08:31:23;6.00;;;3.22;;
3659;SDS011;1846;51.482;7.224;2023-07-13T08:33:51;6.32;;;3.33;;
3659;SDS011;1846;51.482;7.224;2023-07-13T08:36:18;6.88;;;2.83;;
3659;SDS011;1846;51.482;7.224;2023-07-13T08:38:45;9.82;;;3.10;;
3659;SDS011;1846;51.482;7.224;2023-07-13T08:41:12;8.45;;;3.00;;
3659;SDS011;1846;51.482;7.224;2023-07-13T08:43:41;9.95;;;3.40;;
3659;SDS011;1846;51.482;7.224;2023-07-13T08:46:12;6.88;;;3.35;;
3659;SDS011;1846;51.482;7.224;2023-07-13T08:48:43;8.05;;;4.60;;
3659;SDS011;1846;51.482;7.224;2023-07-13T08:51:20;6.28;;;3.15;;
3659;SDS011;1846;51.482;7.224;2023-07-13T08:53:55;8.00;;;3.33;;
3659;SDS011;1846;51.482;7.224;2023-07-13T08:56:28;6.50;;;2.80;;
3659;SDS011;1846;51.482;7.224;2023-07-13T08:58:57;8.13;;;3.30;;
3659;SDS011;1846;51.482;7.224;2023-07-13T09:01:27;9.80;;;3.13;;
3659;SDS011;1846;51.482;7.224;2023-07-13T09:03:59;5.53;;;3.22;;
3659;SDS011;1846;51.482;7.224;2023-07-13T09:06:40;7.82;;;3.10;;
3659;SDS011;1846;51.482;7.224;2023-07-13T09:09:16;11.25;;;3.75;;
3659;SDS011;1846;51.482;7.224;2023-07-13T09:11:54;5.25;;;3.00;;
3659;SDS011;1846;51.482;7.224;2023-07-13T09:14:29;7.18;;;3.20;;
3659;SDS011;1846;51.482;7.224;2023-07-13T09:17:04;8.40;;;2.92;;
3659;SDS011;1846;51.482;7.224;2023-07-13T09:19:36;6.40;;;2.90;;
3659;SDS011;1846;51.482;7.224;2023-07-13T09:22:05;7.03;;;2.85;;
3659;SDS011;1846;51.482;7.224;2023-07-13T09:24:43;6.03;;;2.85;;
3659;SDS011;1846;51.482;7.224;2023-07-13T09:27:22;8.48;;;3.10;;
3659;SDS011;1846;51.482;7.224;2023-07-13T09:29:54;6.88;;;3.30;;
3659;SDS011;1846;51.482;7.224;2023-07-13T09:32:27;8.57;;;2.80;;
3659;SDS011;1846;51.482;7.224;2023-07-13T09:34:55;11.18;;;3.22;;
3659;SDS011;1846;51.482;7.224;2023-07-13T09:37:27;4.80;;;2.38;;
3659;SDS011;1846;51.482;7.224;2023-07-13T09:39:57;8.38;;;3.80;;
3659;SDS011;1846;51.482;7.224;2023-07-13T09:42:25;6.10;;;2.70;;
3659;SDS011;1846;51.482;7.224;2023-07-13T09:44:54;5.35;;;2.35;;
3659;SDS011;1846;51.482;7.224;2023-07-13T09:47:23;7.25;;;2.90;;
3659;SDS011;1846;51.482;7.224;2023-07-13T09:49:55;3.90;;;2.10;;
3659;SDS011;1846;51.482;7.224;2023-07-13T09:52:25;4.00;;;2.40;;
3659;SDS011;1846;51.482;7.224;2023-07-13T09:54:53;7.70;;;3.30;;
3659;SDS011;1846;51.482;7.224;2023-07-13T09:57:24;7.95;;;3.55;;
3659;SDS011;1846;51.482;7.224;2023-07-13T09:59:53;7.95;;;2.60;;
3659;SDS011;1846;51.482;7.224;2023-07-13T10:02:24;5.30;;;2.40;;
3659;SDS011;1846;51.482;7.224;2023-07-13T10:04:55;6.10;;;2.25;;
3659;SDS011;1846;51.482;7.224;2023-07-13T10:07:24;5.40;;;2.20;;
3659;SDS011;1846;51.482;7.224;2023-07-13T10:09:52;13.65;;;3.50;;
3659;SDS011;1846;51.482;7.224;2023-07-13T10:12:20;4.95;;;2.15;;
3659;SDS011;1846;51.482;7.224;2023-07-13T10:14:49;6.90;;;3.55;;
3659;SDS011;1846;51.482;7.224;2023-07-13T10:17:21;4.68;;;2.47;;
3659;SDS011;1846;51.482;7.224;2023-07-13T10:19:55;6.40;;;2.85;;
3659;SDS011;1846;51.482;7.224;2023-07-13T10:22:27;4.28;;;2.25;;
3659;SDS011;1846;51.482;7.224;2023-07-13T10:25:02;7.43;;;2.43;;
3659;SDS011;1846;51.482;7.224;2023-07-13T10:27:35;5.55;;;2.70;;
3659;SDS011;1846;51.482;7.224;2023-07-13T10:30:04;7.25;;;2.28;;
3659;SDS011;1846;51.482;7.224;2023-07-13T10:32:39;7.80;;;2.22;;
3659;SDS011;1846;51.482;7.224;2023-07-13T10:35:08;5.85;;;2.30;;
3659;SDS011;1846;51.482;7.224;2023-07-13T10:37:41;5.30;;;2.60;;
3659;SDS011;1846;51.482;7.224;2023-07-13T10:40:14;9.10;;;4.65;;
3659;SDS011;1846;51.482;7.224;2023-07-13T10:42:46;6.90;;;2.97;;
3659;SDS011;1846;51.482;7.224;2023-07-13T10:45:18;7.15;;;2.80;;
3659;SDS011;1846;51.482;7.224;2023-07-13T10:47:47;5.13;;;3.00;;
3659;SDS011;1846;51.482;7.224;2023-07-13T10:50:17;13.40;;;3.10;;
3659;SDS011;1846;51.482;7.224;2023-07-13T10:52:48;5.15;;;2.60;;
3659;SDS011;1846;51.482;7.224;2023-07-13T10:55:36;4.60;;;2.47;;
3659;SDS011;1846;51.482;7.224;2023-07-13T10:58:11;9.43;;;3.63;;
3659;SDS011;1846;51.482;7.224;2023-07-13T11:00:44;5.60;;;2.50;;
3659;SDS011;1846;51.482;7.224;2023-07-13T11:03:15;6.77;;;3.30;;
3659;SDS011;1846;51.482;7.224;2023-07-13T11:05:47;12.13;;;2.65;;
3659;SDS011;1846;51.482;7.224;2023-07-13T11:08:20;5.60;;;2.60;;
3659;SDS011;1846;51.482;7.224;2023-07-13T11:10:58;5.63;;;2.20;;
3659;SDS011;1846;51.482;7.224;2023-07-13T11:13:39;5.70;;;2.22;;
3659;SDS011;1846;51.482;7.224;2023-07-13T11:16:33;7.80;;;2.42;;
3659;SDS011;1846;51.482;7.224;2023-07-13T11:22:24;6.75;;;2.40;;
3659;SDS011;1846;51.482;7.224;2023-07-13T11:28:04;10.63;;;2.95;;
3659;SDS011;1846;51.482;7.224;2023-07-13T11:30:47;4.55;;;2.70;;
3659;SDS011;1846;51.482;7.224;2023-07-13T11:33:18;5.40;;;2.08;;
3659;SDS011;1846;51.482;7.224;2023-07-13T11:35:51;5.43;;;2.38;;
3659;SDS011;1846;51.482;7.224;2023-07-13T11:38:28;4.45;;;2.20;;
3659;SDS011;1846;51.482;7.224;2023-07-13T11:41:01;5.53;;;2.85;;
3659;SDS011;1846;51.482;7.224;2023-07-13T11:43:30;8.90;;;2.30;;
3659;SDS011;1846;51.482;7.224;2023-07-13T11:45:59;6.53;;;2.60;;
3659;SDS011;1846;51.482;7.224;2023-07-13T11:48:39;3.80;;;2.40;;
3659;SDS011;1846;51.482;7.224;2023-07-13T11:51:06;3.80;;;2.17;;
3659;SDS011;1846;51.482;7.224;2023-07-13T11:53:46;2.80;;;1.90;;
3659;SDS011;1846;51.482;7.224;2023-07-13T11:56:16;4.22;;;1.92;;
3659;SDS011;1846;51.482;7.224;2023-07-13T11:58:48;4.00;;;2.15;;
3659;SDS011;1846;51.482;7.224;2023-07-13T12:01:17;3.88;;;2.20;;
3659;SDS011;1846;51.482;7.224;2023-07-13T12:03:47;6.30;;;2.90;;
3659;SDS011;1846;51.482;7.224;2023-07-13T12:06:25;5.17;;;2.17;;
3659;SDS011;1846;51.482;7.224;2023-07-13T12:08:57;6.93;;;2.20;;
3659;SDS011;1846;51.482;7.224;2023-07-13T12:11:27;5.45;;;2.60;;
3659;SDS011;1846;51.482;7.224;2023-07-13T12:13:54;5.43;;;2.57;;
3659;SDS011;1846;51.482;7.224;2023-07-13T12:16:29;8.35;;;2.00;;
3659;SDS011;1846;51.482;7.224;2023-07-13T12:18:58;3.87;;;1.97;;
3659;SDS011;1846;51.482;7.224;2023-07-13T12:21:29;4.30;;;1.80;;
3659;SDS011;1846;51.482;7.224;2023-07-13T12:23:58;4.23;;;2.10;;
3659;SDS011;1846;51.482;7.224;2023-07-13T12:26:29;2.53;;;2.30;;
3659;SDS011;1846;51.482;7.224;2023-07-13T12:28:58;4.70;;;2.20;;
3659;SDS011;1846;51.482;7.224;2023-07-13T12:31:30;3.63;;;1.90;;
3659;SDS011;1846;51.482;7.224;2023-07-13T12:34:01;5.10;;;2.05;;
3659;SDS011;1846;51.482;7.224;2023-07-13T12:36:30;4.55;;;1.70;;
3659;SDS011;1846;51.482;7.224;2023-07-13T12:39:01;5.30;;;1.98;;
3659;SDS011;1846;51.482;7.224;2023-07-13T12:41:41;2.73;;;1.87;;
3659;SDS011;1846;51.482;7.224;2023-07-13T12:44:11;2.10;;;1.43;;
3659;SDS011;1846;51.482;7.224;2023-07-13T12:46:39;2.53;;;2.33;;
3659;SDS011;1846;51.482;7.224;2023-07-13T12:49:22;2.72;;;1.70;;
3659;SDS011;1846;51.482;7.224;2023-07-13T12:51:55;2.65;;;1.60;;
3659;SDS011;1846;51.482;7.224;2023-07-13T12:54:24;6.00;;;2.23;;
3659;SDS011;1846;51.482;7.224;2023-07-13T12:56:54;3.70;;;1.95;;
3659;SDS011;1846;51.482;7.224;2023-07-13T12:59:23;3.25;;;1.90;;
3659;SDS011;1846;51.482;7.224;2023-07-13T13:01:53;4.07;;;2.10;;
3659;SDS011;1846;51.482;7.224;2023-07-13T13:04:20;3.53;;;1.70;;
3659;SDS011;1846;51.482;7.224;2023-07-13T13:06:48;3.75;;;2.05;;
3659;SDS011;1846;51.482;7.224;2023-07-13T13:09:26;5.65;;;1.83;;
3659;SDS011;1846;51.482;7.224;2023-07-13T13:11:54;7.70;;;2.63;;
3659;SDS011;1846;51.482;7.224;2023-07-13T13:14:21;4.40;;;1.73;;
3659;SDS011;1846;51.482;7.224;2023-07-13T13:16:48;6.05;;;2.00;;
3659;SDS011;1846;51.482;7.224;2023-07-13T13:19:17;5.03;;;2.15;;
3659;SDS011;1846;51.482;7.224;2023-07-13T13:21:47;3.30;;;1.80;;
3659;SDS011;1846;51.482;7.224;2023-07-13T13:24:16;4.30;;;1.38;;
3659;SDS011;1846;51.482;7.224;2023-07-13T13:26:45;2.22;;;1.27;;
3659;SDS011;1846;51.482;7.224;2023-07-13T13:29:15;4.00;;;1.60;;
3659;SDS011;1846;51.482;7.224;2023-07-13T13:31:43;4.25;;;1.63;;
3659;SDS011;1846;51.482;7.224;2023-07-13T13:34:11;5.80;;;1.67;;
3659;SDS011;1846;51.482;7.224;2023-07-13T13:36:39;8.85;;;5.88;;
3659;SDS011;1846;51.482;7.224;2023-07-13T13:39:18;7.05;;;2.30;;
3659;SDS011;1846;51.482;7.224;2023-07-13T13:41:48;4.93;;;2.67;;
3659;SDS011;1846;51.482;7.224;2023-07-13T13:44:17;7.38;;;3.08;;
3659;SDS011;1846;51.482;7.224;2023-07-13T13:46:45;7.50;;;3.60;;
3659;SDS011;1846;51.482;7.224;2023-07-13T13:49:14;11.80;;;4.40;;
3659;SDS011;1846;51.482;7.224;2023-07-13T13:51:43;5.05;;;3.30;;
3659;SDS011;1846;51.482;7.224;2023-07-13T13:54:11;6.65;;;3.25;;
3659;SDS011;1846;51.482;7.224;2023-07-13T13:56:41;7.57;;;4.38;;
3659;SDS011;1846;51.482;7.224;2023-07-13T13:59:09;4.77;;;3.90;;
3659;SDS011;1846;51.482;7.224;2023-07-13T14:01:37;5.00;;;4.05;;
3659;SDS011;1846;51.482;7.224;2023-07-13T14:04:05;6.15;;;3.97;;
3659;SDS011;1846;51.482;7.224;2023-07-13T14:06:33;7.95;;;4.78;;
3659;SDS011;1846;51.482;7.224;2023-07-13T14:09:01;6.10;;;3.80;;
3659;SDS011;1846;51.482;7.224;2023-07-13T14:11:28;7.00;;;4.10;;
3659;SDS011;1846;51.482;7.224;2023-07-13T14:13:58;4.05;;;3.65;;
3659;SDS011;1846;51.482;7.224;2023-07-13T14:16:28;5.97;;;3.60;;
3659;SDS011;1846;51.482;7.224;2023-07-13T14:18:59;6.23;;;4.17;;
3659;SDS011;1846;51.482;7.224;2023-07-13T14:21:27;7.25;;;4.05;;
3659;SDS011;1846;51.482;7.224;2023-07-13T14:23:55;4.85;;;3.83;;
3659;SDS011;1846;51.482;7.224;2023-07-13T14:26:27;4.63;;;3.40;;
3659;SDS011;1846;51.482;7.224;2023-07-13T14:28:56;5.53;;;3.70;;
3659;SDS011;1846;51.482;7.224;2023-07-13T14:31:25;6.95;;;3.88;;
3659;SDS011;1846;51.482;7.224;2023-07-13T14:33:54;5.50;;;4.60;;
3659;SDS011;1846;51.482;7.224;2023-07-13T14:42:40;25.92;;;9.30;;
3659;SDS011;1846;51.482;7.224;2023-07-13T14:45:38;10.35;;;6.45;;
3659;SDS011;1846;51.482;7.224;2023-07-13T14:48:21;8.60;;;6.53;;
3659;SDS011;1846;51.482;7.224;2023-07-13T14:51:26;12.10;;;7.30;;
3659;SDS011;1846;51.482;7.224;2023-07-13T14:57:28;10.70;;;6.73;;
3659;SDS011;1846;51.482;7.224;2023-07-13T15:00:22;8.05;;;5.90;;
3659;SDS011;1846;51.482;7.224;2023-07-13T15:03:57;11.85;;;6.70;;
3659;SDS011;1846;51.482;7.224;2023-07-13T15:08:11;10.63;;;6.80;;
3659;SDS011;1846;51.482;7.224;2023-07-13T15:16:48;7.90;;;6.43;;
3659;SDS011;1846;51.482;7.224;2023-07-13T15:19:58;9.77;;;5.28;;
3659;SDS011;1846;51.482;7.224;2023-07-13T15:26:17;8.27;;;5.40;;
3659;SDS011;1846;51.482;7.224;2023-07-13T15:33:00;7.70;;;6.15;;
3659;SDS011;1846;51.482;7.224;2023-07-13T15:36:11;7.25;;;6.57;;
3659;SDS011;1846;51.482;7.224;2023-07-13T15:40:30;7.22;;;5.60;;
3659;SDS011;1846;51.482;7.224;2023-07-13T15:47:04;8.75;;;4.47;;
3659;SDS011;1846;51.482;7.224;2023-07-13T16:01:46;23.45;;;9.00;;
3659;SDS011;1846;51.482;7.224;2023-07-13T16:05:10;15.25;;;7.15;;
3659;SDS011;1846;51.482;7.224;2023-07-13T16:21:04;7.32;;;4.00;;
3659;SDS011;1846;51.482;7.224;2023-07-13T16:24:03;7.40;;;3.77;;
3659;SDS011;1846;51.482;7.224;2023-07-13T16:26:50;4.50;;;4.10;;
3659;SDS011;1846;51.482;7.224;2023-07-13T16:29:47;7.93;;;4.70;;
3659;SDS011;1846;51.482;7.224;2023-07-13T16:32:32;4.30;;;3.55;;
3659;SDS011;1846;51.482;7.224;2023-07-13T16:35:07;5.55;;;3.88;;
3659;SDS011;1846;51.482;7.224;2023-07-13T16:37:36;4.40;;;4.00;;
3659;SDS011;1846;51.482;7.224;2023-07-13T16:40:12;8.40;;;4.57;;
3659;SDS011;1846;51.482;7.224;2023-07-13T16:42:48;6.85;;;4.63;;